KFFO

Wright-Patterson AFB Airport

Dayton, Ohio, USA
METAR KFFO 160556Z 18005KT 10SM BKN110 20/19 A3003 RMK AO2A SLP166 60002 T02020185 10227 20202 57014
Observed Flight Rules
Aug-16 @ 05:56 UTC (20 minutes ago) Visual Flight Rules
Wind Visibility Clouds
180° at 5 knots 10 miles
  • Broken at 11,000' AGL
Temperatures Readings
Current 20°C / 68°F
Dewpoint 19°C / 66°F
Humidity 94%
Altimeter 30.03" Hg
Pressure 1016.6 hPa
Elevation 251
METAR KFFO 160556Z 18005KT 10SM BKN110 20/19 A3003 RMK AO2A SLP166 60002 T02020185 10227 20202 57014
Observed Flight Rules
Aug-16 @ 05:56 UTC
(20 minutes ago)
VFR
Wind Visibility
180° at 5 knots 10 miles
Clouds
  • Broken at 11,000' AGL
Temperature Dewpoint
20°C / 68°F 19°C / 66°F
Humidity Altimeter Pressure
94% 30.03" Hg 1016.6 hPa